Time;durP1;ratioP1;P1;durP2;ratioP2;P2;SDS_P1;SDS_P2;PMS_P1;PMS_P2;Temp;Humidity;BMP_temperature;BMP_pressure;BME280_temperature;BME280_humidity;BME280_pressure;Samples;Min_cycle;Max_cycle;Signal;HPM_P1;HPM_P2
2022/05/27 00:00:11;;;;;;;7.05;2.92;;;;;;;14.43;79.00;99834.53;5008668;28;20119;-54
2022/05/27 00:02:36;;;;;;;7.85;3.10;;;;;;;14.31;79.63;99835.75;4988041;28;20068;-54
2022/05/27 00:05:02;;;;;;;7.70;2.90;;;;;;;14.26;79.72;99833.78;4989087;28;20061;-54
2022/05/27 00:07:28;;;;;;;5.68;2.38;;;;;;;14.30;79.85;99829.50;5004495;28;20508;-55
2022/05/27 00:09:55;;;;;;;7.80;2.60;;;;;;;14.34;79.82;99817.16;5005321;28;20026;-55
2022/05/27 00:12:20;;;;;;;13.68;2.95;;;;;;;14.35;79.76;99809.88;5004566;28;20022;-54
2022/05/27 00:14:46;;;;;;;6.15;2.65;;;;;;;14.35;79.66;99820.66;4986330;28;20517;-58
2022/05/27 00:17:12;;;;;;;5.03;2.70;;;;;;;14.28;80.26;99823.56;5002348;28;20053;-62
2022/05/27 00:19:38;;;;;;;7.40;2.78;;;;;;;14.22;80.27;99816.47;5003267;28;20033;-55
2022/05/27 00:22:04;;;;;;;7.13;2.60;;;;;;;14.15;80.80;99816.69;5000266;28;20022;-54
2022/05/27 00:24:29;;;;;;;7.18;2.55;;;;;;;14.12;81.23;99811.78;5000858;28;20034;-60
2022/05/27 00:26:55;;;;;;;4.85;2.80;;;;;;;14.22;81.00;99813.78;5003531;28;20026;-55
2022/05/27 00:29:20;;;;;;;7.05;2.70;;;;;;;14.26;80.54;99812.22;5002191;28;20052;-56
2022/05/27 00:31:46;;;;;;;6.03;2.70;;;;;;;14.44;79.21;99800.28;5005538;28;20424;-55
2022/05/27 00:34:13;;;;;;;6.30;2.90;;;;;;;14.45;79.00;99799.19;5001354;28;20037;-56
2022/05/27 00:36:39;;;;;;;8.13;2.78;;;;;;;14.48;78.72;99798.72;5004110;28;20022;-54
2022/05/27 00:39:04;;;;;;;8.25;2.70;;;;;;;14.48;78.43;99792.47;4987398;28;20042;-55
2022/05/27 00:41:30;;;;;;;6.30;2.47;;;;;;;14.62;77.47;99799.94;5006342;28;20125;-55
2022/05/27 00:43:56;;;;;;;5.70;2.72;;;;;;;14.57;77.43;99799.91;5007076;28;20225;-52
2022/05/27 00:46:25;;;;;;;6.20;2.47;;;;;;;14.66;77.14;99806.47;5004728;28;20158;-55
2022/05/27 00:48:53;;;;;;;6.05;2.47;;;;;;;14.73;76.15;99795.47;5007337;28;20507;-54
2022/05/27 00:51:24;;;;;;;7.97;2.75;;;;;;;14.79;75.81;99794.44;4971041;28;20033;-55
2022/05/27 00:54:11;;;;;;;6.68;2.45;;;;;;;14.86;75.21;99795.03;5002947;28;20034;-53
2022/05/27 00:56:39;;;;;;;6.10;2.28;;;;;;;14.96;74.75;99788.13;4983742;28;20044;-54
2022/05/27 00:59:19;;;;;;;6.93;2.55;;;;;;;14.98;74.27;99794.88;4984413;28;20045;-55
2022/05/27 01:01:45;;;;;;;;;;;;;;;15.06;74.14;99793.59;4985303;28;20346;-54
2022/05/27 01:04:10;;;;;;;7.68;2.38;;;;;;;15.02;73.77;99797.88;5000632;28;20380;-56
2022/05/27 01:06:36;;;;;;;5.70;2.40;;;;;;;15.00;74.23;99791.91;4984870;28;20022;-55
2022/05/27 01:09:02;;;;;;;9.25;2.80;;;;;;;14.96;74.27;99793.50;4985546;28;20033;-55
2022/05/27 01:11:55;;;;;;;6.20;2.20;;;;;;;14.87;75.34;99788.56;5002877;28;20033;-55
2022/05/27 01:14:23;;;;;;;7.43;2.50;;;;;;;14.73;76.46;99783.88;4984960;28;20041;-54
2022/05/27 01:17:04;;;;;;;9.15;2.75;;;;;;;14.68;76.97;99787.34;4988005;28;20400;-55
2022/05/27 01:22:49;;;;;;;8.55;2.92;;;;;;;14.63;77.39;99798.09;4999023;28;20049;-54
2022/05/27 01:25:56;;;;;;;5.53;2.60;;;;;;;14.61;77.92;99808.31;4984688;28;20034;-56
2022/05/27 01:28:43;;;;;;;9.45;2.63;;;;;;;14.61;76.89;99803.72;5002685;28;20037;-55
2022/05/27 01:31:15;;;;;;;4.82;2.15;;;;;;;14.73;76.33;99798.19;4998818;28;20033;-55
2022/05/27 01:33:53;;;;;;;6.72;2.60;;;;;;;14.83;74.81;99790.16;5001418;28;20029;-54
2022/05/27 01:36:27;;;;;;;5.75;2.55;;;;;;;14.92;74.50;99792.38;4969497;28;20041;-55
2022/05/27 01:39:12;;;;;;;6.22;2.10;;;;;;;14.95;74.29;99791.88;5000468;28;20084;-55
2022/05/27 01:41:49;;;;;;;5.55;2.08;;;;;;;14.94;73.76;99784.84;4970511;28;20339;-55
2022/05/27 01:44:57;;;;;;;5.90;2.10;;;;;;;15.01;73.39;99774.66;4983598;28;20030;-56
2022/05/27 01:47:32;;;;;;;4.63;2.00;;;;;;;14.86;74.81;99772.66;4921092;28;20074;-54
2022/05/27 01:50:22;;;;;;;4.65;2.00;;;;;;;14.76;75.05;99775.28;4976959;28;20053;-56
2022/05/27 01:53:19;;;;;;;5.68;2.05;;;;;;;14.66;74.93;99763.31;4986966;28;21487;-55
2022/05/27 01:55:49;;;;;;;3.97;2.10;;;;;;;14.62;75.02;99766.75;4984940;28;20439;-55
2022/05/27 01:58:17;;;;;;;5.38;2.00;;;;;;;14.58;75.33;99760.28;4982655;28;20053;-54
2022/05/27 02:00:43;;;;;;;4.93;2.35;;;;;;;14.54;75.43;99757.25;4968821;28;20057;-55
2022/05/27 02:03:30;;;;;;;5.63;2.03;;;;;;;14.44;75.60;99755.25;4967229;28;20037;-56
2022/05/27 02:06:08;;;;;;;5.07;1.95;;;;;;;14.45;75.59;99756.88;4967881;28;20080;-55
2022/05/27 02:08:41;;;;;;;6.13;2.20;;;;;;;14.49;75.50;99756.38;4984776;28;20416;-55
2022/05/27 02:11:15;;;;;;;3.55;2.15;;;;;;;14.46;75.62;99757.69;4984569;28;20052;-55
2022/05/27 02:14:06;;;;;;;4.95;2.13;;;;;;;14.48;75.65;99757.41;4980956;28;20156;-55
2022/05/27 02:16:35;;;;;;;4.97;1.80;;;;;;;14.45;75.93;99759.59;5000001;28;20033;-54
2022/05/27 02:19:22;;;;;;;4.47;2.10;;;;;;;14.44;75.90;99757.13;5000638;28;20072;-54
2022/05/27 02:21:53;;;;;;;6.60;2.20;;;;;;;14.40;76.03;99754.16;5001805;28;20038;-55
2022/05/27 02:24:23;;;;;;;7.90;2.08;;;;;;;14.41;76.12;99758.44;4986194;28;20040;-55
2022/05/27 02:26:57;;;;;;;3.70;2.10;;;;;;;14.41;75.88;99755.75;4997035;28;20030;-56
2022/05/27 02:29:25;;;;;;;3.58;2.13;;;;;;;14.45;75.84;99751.50;4981932;28;20045;-55
2022/05/27 02:31:53;;;;;;;5.32;2.30;;;;;;;14.39;76.04;99744.41;4983448;28;20419;-56
2022/05/27 02:37:40;;;;;;;5.50;2.30;;;;;;;14.39;76.32;99747.09;4985600;28;20115;-56
2022/05/27 02:40:17;;;;;;;8.10;2.40;;;;;;;14.40;76.25;99729.88;4982047;28;20041;-55
2022/05/27 02:43:12;;;;;;;7.65;2.22;;;;;;;14.42;75.84;99735.81;4983587;28;20041;-57
2022/05/27 02:45:41;;;;;;;3.30;2.00;;;;;;;14.36;76.18;99747.63;4967924;28;20041;-56
2022/05/27 02:48:15;;;;;;;6.82;2.10;;;;;;;14.33;76.60;99753.53;5002705;28;20514;-57
2022/05/27 02:51:04;;;;;;;3.95;2.00;;;;;;;14.28;76.31;99748.09;4981706;28;20068;-54
2022/05/27 02:53:33;;;;;;;6.18;2.45;;;;;;;14.27;76.54;99742.94;4983815;28;20065;-55
2022/05/27 02:56:09;;;;;;;4.80;1.90;;;;;;;14.28;76.10;99742.69;4998275;28;20456;-55
2022/05/27 02:58:35;;;;;;;3.47;2.10;;;;;;;14.17;76.07;99738.25;4967431;28;20492;-55
2022/05/27 03:01:00;;;;;;;16.80;2.45;;;;;;;14.17;76.02;99732.84;5001199;28;20228;-55
2022/05/27 03:03:29;;;;;;;3.80;1.58;;;;;;;14.14;76.31;99733.38;4999195;28;20099;-56
2022/05/27 03:06:02;;;;;;;2.95;1.75;;;;;;;14.06;76.39;99737.34;4967781;28;20271;-54
2022/05/27 03:08:35;;;;;;;3.97;2.03;;;;;;;14.00;77.01;99733.78;5000010;28;20362;-55
2022/05/27 03:11:12;;;;;;;2.95;1.73;;;;;;;13.97;77.02;99734.25;4966813;28;20781;-55
2022/05/27 03:13:44;;;;;;;3.53;1.83;;;;;;;13.99;76.93;99729.44;4984139;28;20042;-56
2022/05/27 03:16:33;;;;;;;3.03;1.92;;;;;;;14.00;77.02;99731.06;5000355;28;20480;-57
2022/05/27 03:19:23;;;;;;;3.78;1.85;;;;;;;13.93;77.02;99732.34;4999924;28;20037;-55
2022/05/27 03:22:10;;;;;;;3.97;2.00;;;;;;;13.96;77.17;99735.34;4999020;28;20025;-56
2022/05/27 03:25:15;;;;;;;5.85;2.15;;;;;;;13.84;77.68;99734.66;4983413;28;20049;-55
2022/05/27 03:28:11;;;;;;;6.53;2.22;;;;;;;13.88;78.02;99729.56;4977336;28;20034;-56
2022/05/27 03:31:01;;;;;;;2.97;1.90;;;;;;;13.89;77.71;99732.00;4968338;28;20026;-55
2022/05/27 03:33:46;;;;;;;5.63;1.85;;;;;;;13.75;78.81;99731.59;4979563;28;20022;-56
2022/05/27 03:36:19;;;;;;;7.50;2.15;;;;;;;13.77;77.99;99734.03;4999260;28;20037;-56
2022/05/27 03:38:52;;;;;;;3.85;1.98;;;;;;;13.74;78.78;99731.84;4982554;28;20112;-53
2022/05/27 03:41:26;;;;;;;5.15;2.10;;;;;;;13.71;78.94;99735.84;4983167;28;20053;-56
2022/05/27 03:43:51;;;;;;;5.80;1.98;;;;;;;13.77;78.52;99736.72;4965446;28;20030;-55
2022/05/27 03:46:28;;;;;;;4.70;2.45;;;;;;;13.78;78.99;99741.06;4999556;28;20361;-55
2022/05/27 03:48:53;;;;;;;4.65;2.22;;;;;;;13.73;79.31;99738.31;5004825;28;20092;-56
2022/05/27 03:51:20;;;;;;;5.30;2.22;;;;;;;13.77;79.05;99728.63;5003862;28;20026;-55
2022/05/27 03:54:03;;;;;;;4.25;2.15;;;;;;;13.75;78.96;99733.44;4970955;28;20034;-53
2022/05/27 03:56:33;;;;;;;5.68;2.00;;;;;;;13.76;78.83;99730.53;5004682;28;20026;-55
2022/05/27 03:59:02;;;;;;;10.80;2.28;;;;;;;13.72;79.04;99721.31;5004949;28;20037;-56
2022/05/27 04:01:31;;;;;;;4.57;1.90;;;;;;;13.76;78.88;99724.31;5004274;28;20058;-55
2022/05/27 04:04:03;;;;;;;3.95;1.90;;;;;;;13.73;79.05;99725.66;5004332;28;20666;-56
2022/05/27 04:06:29;;;;;;;4.20;1.92;;;;;;;13.74;79.07;99729.16;5001461;28;20034;-54
2022/05/27 04:08:55;;;;;;;9.48;2.53;;;;;;;13.72;79.17;99723.19;5003221;28;20373;-55
2022/05/27 04:11:21;;;;;;;4.40;2.30;;;;;;;13.74;79.38;99734.53;5002312;28;20026;-55
2022/05/27 04:13:47;;;;;;;7.70;2.50;;;;;;;13.77;79.43;99734.03;4986803;28;20057;-55
2022/05/27 04:16:12;;;;;;;5.40;2.60;;;;;;;13.70;79.73;99738.78;5004270;28;20037;-56
2022/05/27 04:18:38;;;;;;;7.93;2.28;;;;;;;13.77;79.50;99745.59;5002824;28;20125;-55
2022/05/27 04:21:04;;;;;;;6.28;2.33;;;;;;;13.83;79.14;99757.28;5004138;28;20138;-55
2022/05/27 04:23:29;;;;;;;5.38;2.05;;;;;;;13.79;78.89;99742.66;4999380;28;20046;-55
2022/05/27 04:25:55;;;;;;;7.28;2.33;;;;;;;13.87;78.72;99739.53;4985932;28;20030;-56
2022/05/27 04:28:20;;;;;;;5.03;2.13;;;;;;;13.98;78.62;99741.28;5001219;28;20097;-55
2022/05/27 04:30:46;;;;;;;4.57;2.20;;;;;;;13.97;78.40;99742.34;5006693;28;20499;-54
2022/05/27 04:33:12;;;;;;;3.00;1.95;;;;;;;13.99;78.69;99752.88;5005357;28;20026;-55
2022/05/27 04:35:38;;;;;;;5.50;2.10;;;;;;;14.01;78.61;99740.78;4991619;28;20026;-55
2022/05/27 04:38:03;;;;;;;4.57;2.13;;;;;;;13.93;78.81;99743.94;5005866;28;20030;-55
2022/05/27 04:40:29;;;;;;;6.03;2.10;;;;;;;14.00;78.48;99749.09;4990441;28;20594;-58
2022/05/27 04:42:55;;;;;;;5.95;2.00;;;;;;;14.09;78.33;99752.19;4974654;28;20593;-54
2022/05/27 04:45:20;;;;;;;6.45;2.35;;;;;;;14.03;78.72;99748.63;5004640;28;20052;-54
2022/05/27 04:47:46;;;;;;;5.47;2.28;;;;;;;14.01;78.68;99750.75;5007846;28;20049;-55
2022/05/27 04:50:12;;;;;;;5.70;2.35;;;;;;;14.01;78.12;99746.16;5006931;28;20503;-54
2022/05/27 04:52:38;;;;;;;5.57;2.20;;;;;;;14.03;78.28;99749.44;5006645;28;20472;-53
2022/05/27 04:55:07;;;;;;;5.03;1.90;;;;;;;14.01;78.71;99746.16;5005144;28;20085;-53
2022/05/27 04:57:38;;;;;;;6.78;2.35;;;;;;;14.14;78.09;99747.66;4984830;28;20516;-55
2022/05/27 05:00:07;;;;;;;3.75;2.08;;;;;;;14.17;77.77;99743.63;4984465;28;20391;-54
2022/05/27 05:02:32;;;;;;;4.00;2.00;;;;;;;14.40;77.33;99747.91;5006410;28;20033;-54
2022/05/27 05:04:58;;;;;;;6.57;2.38;;;;;;;14.32;77.47;99748.38;4987907;28;20488;-54
2022/05/27 05:07:24;;;;;;;5.07;2.22;;;;;;;14.32;77.00;99741.09;5004483;28;20108;-54
2022/05/27 05:09:49;;;;;;;5.95;1.98;;;;;;;14.30;77.50;99740.53;4974580;28;20373;-55
2022/05/27 05:12:15;;;;;;;3.85;1.95;;;;;;;14.41;76.91;99744.97;5002169;28;20033;-54
2022/05/27 05:14:41;;;;;;;6.60;2.13;;;;;;;14.37;76.67;99727.66;4990163;28;20056;-53
2022/05/27 05:17:07;;;;;;;4.65;2.20;;;;;;;14.50;76.80;99741.81;5005676;28;20041;-57
2022/05/27 05:19:33;;;;;;;5.28;2.45;;;;;;;14.57;76.49;99734.34;4988259;28;20083;-54
2022/05/27 05:21:58;;;;;;;4.38;2.00;;;;;;;14.68;76.25;99741.47;5004208;28;20073;-55
2022/05/27 05:24:24;;;;;;;8.80;2.40;;;;;;;14.93;75.71;99740.88;5003756;28;20396;-54
2022/05/27 05:26:50;;;;;;;10.27;1.98;;;;;;;15.14;74.26;99741.00;5005628;28;20034;-55
2022/05/27 05:29:15;;;;;;;7.18;2.25;;;;;;;15.32;73.44;99741.41;5002920;28;20118;-54
2022/05/27 05:31:41;;;;;;;5.82;2.08;;;;;;;15.37;72.93;99747.91;5000510;28;20033;-55
2022/05/27 05:34:07;;;;;;;3.80;1.77;;;;;;;15.38;73.42;99752.25;5000334;28;20472;-55
2022/05/27 05:36:34;;;;;;;12.50;2.03;;;;;;;15.26;73.55;99753.22;4983315;28;20026;-55
2022/05/27 05:39:00;;;;;;;7.43;2.10;;;;;;;15.08;73.90;99759.06;5000029;28;20124;-54
2022/05/27 05:41:34;;;;;;;4.90;2.00;;;;;;;15.30;73.48;99751.66;4983148;28;20030;-57
2022/05/27 05:43:59;;;;;;;3.95;1.75;;;;;;;15.30;73.26;99751.66;5000556;28;20421;-55
2022/05/27 05:46:26;;;;;;;4.88;1.75;;;;;;;15.53;73.41;99755.81;4987484;28;20033;-55
2022/05/27 05:48:52;;;;;;;2.78;1.60;;;;;;;15.22;73.89;99752.13;4997523;28;20363;-55
2022/05/27 05:51:18;;;;;;;5.60;1.85;;;;;;;15.38;73.10;99753.03;5000342;28;20033;-55
2022/05/27 05:53:44;;;;;;;2.72;1.60;;;;;;;15.64;72.35;99758.56;4997653;28;20033;-55
2022/05/27 05:56:10;;;;;;;3.83;1.60;;;;;;;15.47;72.64;99750.66;4999232;28;20024;-54
2022/05/27 05:58:35;;;;;;;2.95;1.70;;;;;;;15.82;71.50;99747.31;5001525;28;20113;-55
2022/05/27 06:01:01;;;;;;;4.75;1.73;;;;;;;15.70;71.81;99749.44;5003418;28;20061;-54
2022/05/27 06:03:26;;;;;;;2.78;1.50;;;;;;;15.94;71.06;99750.63;5000307;28;20030;-58
2022/05/27 06:05:52;;;;;;;3.60;1.30;;;;;;;16.26;70.36;99746.13;5000700;28;20026;-54
2022/05/27 06:08:21;;;;;;;3.17;1.45;;;;;;;16.00;71.50;99742.53;5000692;28;20120;-56
2022/05/27 06:10:47;;;;;;;3.38;1.65;;;;;;;15.82;72.03;99746.53;4984959;28;20037;-54
2022/05/27 06:13:12;;;;;;;6.05;1.63;;;;;;;15.77;72.00;99744.59;5002496;28;20123;-54
2022/05/27 06:15:38;;;;;;;1.98;1.50;;;;;;;16.07;71.46;99746.59;5002276;28;20038;-54
2022/05/27 06:18:05;;;;;;;2.63;1.50;;;;;;;16.00;71.62;99742.53;4999726;28;20044;-54
2022/05/27 06:20:31;;;;;;;3.63;1.50;;;;;;;16.03;71.32;99737.41;4982674;28;20033;-55
2022/05/27 06:22:57;;;;;;;4.20;1.48;;;;;;;15.86;71.32;99747.63;4999822;28;20065;-54
2022/05/27 06:25:23;;;;;;;2.10;1.40;;;;;;;15.97;72.33;99754.69;4999985;28;20563;-55
2022/05/27 06:27:48;;;;;;;4.15;1.40;;;;;;;15.94;71.86;99752.53;4994861;28;20029;-54
2022/05/27 06:35:42;;;;;;;2.55;1.40;;;;;;;15.93;71.00;99759.81;5000922;28;20033;-54
2022/05/27 06:38:08;;;;;;;3.65;1.60;;;;;;;15.86;71.75;99755.75;4982573;28;20488;-53
2022/05/27 06:40:34;;;;;;;4.47;1.50;;;;;;;15.98;71.58;99759.03;4983771;28;20381;-54
2022/05/27 06:42:59;;;;;;;2.72;1.20;;;;;;;16.22;70.15;99758.56;4999514;28;20263;-56
2022/05/27 06:45:25;;;;;;;3.85;1.30;;;;;;;16.57;69.35;99758.63;5001413;28;20060;-58
2022/05/27 06:47:50;;;;;;;2.15;1.20;;;;;;;16.51;68.93;99758.88;4984278;28;20053;-55
2022/05/27 06:50:16;;;;;;;2.85;1.30;;;;;;;16.98;67.56;99758.66;5002145;28;20037;-56
2022/05/27 06:52:42;;;;;;;3.25;1.50;;;;;;;18.74;61.99;99766.63;5001929;28;20034;-55
2022/05/27 06:55:10;;;;;;;3.13;1.27;;;;;;;17.48;65.50;99766.19;5000379;28;20081;-56
2022/05/27 06:57:35;;;;;;;1.90;1.10;;;;;;;17.09;67.04;99769.47;4982758;28;20109;-55
2022/05/27 07:00:01;;;;;;;1.48;1.02;;;;;;;17.10;67.66;99776.50;4999994;28;20041;-54
2022/05/27 07:02:27;;;;;;;3.05;1.20;;;;;;;16.89;67.99;99767.59;5001389;28;20030;-54
2022/05/27 07:04:52;;;;;;;1.35;1.00;;;;;;;17.10;67.27;99771.09;4999612;28;20776;-55
2022/05/27 07:07:18;;;;;;;1.30;0.98;;;;;;;17.06;67.95;99778.16;4999071;28;20061;-54
2022/05/27 07:09:44;;;;;;;1.20;1.10;;;;;;;16.73;67.88;99772.19;4952698;28;20046;-55
2022/05/27 07:12:11;;;;;;;1.55;1.13;;;;;;;17.06;67.02;99776.25;5005050;28;21228;-56
2022/05/27 07:14:38;;;;;;;3.53;1.30;;;;;;;17.42;66.55;99785.16;4984960;28;20093;-53
2022/05/27 07:17:04;;;;;;;0.95;0.95;;;;;;;19.68;59.63;99781.06;5003903;28;20075;-55
2022/05/27 07:19:30;;;;;;;1.83;1.02;;;;;;;18.31;62.26;99777.25;4983796;28;20034;-54
2022/05/27 07:21:56;;;;;;;2.58;1.10;;;;;;;18.44;62.45;99783.13;4999161;28;20298;-55
2022/05/27 07:24:22;;;;;;;1.75;0.70;;;;;;;18.61;62.60;99780.06;5004123;28;20034;-54
2022/05/27 07:26:48;;;;;;;1.27;0.75;;;;;;;18.14;62.58;99773.28;4999932;28;20108;-54
2022/05/27 07:29:14;;;;;;;2.97;1.00;;;;;;;17.84;63.66;99769.59;4984562;28;20079;-54
2022/05/27 07:31:40;;;;;;;0.80;0.80;;;;;;;18.45;62.50;99773.94;5004559;28;20057;-55
2022/05/27 07:34:06;;;;;;;1.38;0.98;;;;;;;19.61;59.15;99773.19;4983477;28;20044;-55
2022/05/27 07:36:31;;;;;;;1.48;0.90;;;;;;;19.70;58.83;99771.50;4985427;28;20029;-55
2022/05/27 07:38:57;;;;;;;1.13;1.02;;;;;;;18.78;61.41;99771.56;4995062;28;20076;-54
2022/05/27 07:41:23;;;;;;;1.58;0.60;;;;;;;18.08;63.29;99776.00;4999471;28;20025;-54
2022/05/27 07:43:48;;;;;;;1.02;0.88;;;;;;;18.37;63.42;99777.22;4998506;28;20084;-54
2022/05/27 07:46:15;;;;;;;1.33;0.82;;;;;;;17.86;64.48;99779.09;4996989;28;20026;-54
2022/05/27 07:48:41;;;;;;;3.45;0.77;;;;;;;18.03;64.40;99777.94;4988702;28;20129;-54
2022/05/27 07:51:07;;;;;;;1.02;0.77;;;;;;;17.82;64.70;99778.03;5003763;28;20057;-54
2022/05/27 07:53:34;;;;;;;1.52;0.80;;;;;;;17.74;65.26;99775.84;4985135;28;20029;-56
2022/05/27 07:56:03;;;;;;;2.45;1.17;;;;;;;17.82;64.93;99788.88;4969109;28;21108;-54
2022/05/27 07:58:28;;;;;;;1.10;1.00;;;;;;;17.87;65.56;99780.72;4978624;28;20029;-54
2022/05/27 08:00:54;;;;;;;0.73;0.73;;;;;;;17.97;64.64;99782.59;5004483;28;20472;-53
2022/05/27 08:03:20;;;;;;;0.82;0.82;;;;;;;17.65;65.71;99778.31;5002701;28;20177;-54
2022/05/27 08:05:46;;;;;;;1.73;0.90;;;;;;;17.86;65.37;99789.94;5007334;28;20060;-54
2022/05/27 08:08:12;;;;;;;1.20;1.10;;;;;;;17.61;65.31;99782.66;5006301;28;20064;-54
2022/05/27 08:10:37;;;;;;;1.10;0.88;;;;;;;17.79;64.62;99780.44;5007699;28;20392;-54
2022/05/27 08:13:04;;;;;;;0.77;0.75;;;;;;;18.28;63.92;99785.94;4989537;28;20058;-53
2022/05/27 08:15:29;;;;;;;0.88;0.77;;;;;;;18.31;63.65;99785.38;4986746;28;20037;-54
2022/05/27 08:17:55;;;;;;;0.70;0.70;;;;;;;17.93;64.10;99791.56;5007919;28;20065;-55
2022/05/27 08:20:23;;;;;;;2.20;0.80;;;;;;;18.06;64.94;99790.94;5008692;28;20068;-51
2022/05/27 08:22:49;;;;;;;1.02;0.63;;;;;;;17.72;66.30;99802.41;5007788;28;20033;-54
2022/05/27 08:25:15;;;;;;;1.92;0.93;;;;;;;17.38;67.77;99804.94;4990854;28;20026;-54
2022/05/27 08:27:40;;;;;;;1.55;0.70;;;;;;;17.54;67.46;99805.72;4984227;28;20049;-55
2022/05/27 08:30:07;;;;;;;1.25;1.15;;;;;;;17.50;68.15;99802.75;5007519;28;20049;-52
2022/05/27 08:32:33;;;;;;;0.65;0.65;;;;;;;17.41;67.76;99802.50;5007569;28;20042;-55
2022/05/27 08:38:03;;;;;;;1.70;1.00;;;;;;;18.16;65.51;99799.03;5006274;28;20083;-54
2022/05/27 08:40:50;;;;;;;1.30;0.85;;;;;;;18.09;66.45;99793.91;5005468;28;20384;-55
2022/05/27 08:43:15;;;;;;;1.30;0.90;;;;;;;17.51;68.11;99803.56;5005902;28;20547;-55
2022/05/27 08:46:02;;;;;;;1.15;0.88;;;;;;;17.97;66.75;99803.44;5008164;28;20558;-54
2022/05/27 08:48:32;;;;;;;0.40;0.40;;;;;;;18.41;65.42;99806.22;4982742;28;20066;-55
2022/05/27 08:51:04;;;;;;;1.48;0.80;;;;;;;18.28;65.37;99799.50;4984939;28;20035;-54
2022/05/27 08:53:36;;;;;;;1.58;0.73;;;;;;;18.26;66.11;99804.41;4986182;28;20131;-54
2022/05/27 09:01:38;;;;;;;2.33;0.85;;;;;;;18.59;63.99;99804.75;4986522;28;20504;-56
2022/05/27 09:04:17;;;;;;;0.70;0.50;;;;;;;18.93;62.43;99812.16;4965308;28;20030;-55
2022/05/27 09:06:44;;;;;;;0.75;0.75;;;;;;;19.29;61.94;99815.38;4982208;28;20030;-54
2022/05/27 09:09:16;;;;;;;1.15;0.60;;;;;;;19.23;61.10;99813.81;4967735;28;20049;-55
2022/05/27 09:12:14;;;;;;;2.63;0.60;;;;;;;20.33;58.39;99815.88;4969731;28;20042;-54
2022/05/27 09:14:45;;;;;;;0.75;0.70;;;;;;;19.66;58.86;99824.00;5000158;28;20038;-55
2022/05/27 09:17:54;;;;;;;0.60;0.60;;;;;;;18.95;61.42;99821.66;4985911;28;20041;-56
2022/05/27 09:20:42;;;;;;;1.88;1.00;;;;;;;18.37;63.05;99809.78;4973845;28;20045;-56
2022/05/27 09:23:24;;;;;;;1.25;0.65;;;;;;;18.40;64.32;99809.22;4983826;28;20045;-55
2022/05/27 09:26:04;;;;;;;1.40;0.82;;;;;;;18.64;63.39;99809.34;4985277;28;20100;-54
2022/05/27 09:28:48;;;;;;;0.50;0.50;;;;;;;18.77;63.62;99807.94;4981020;28;20034;-54
2022/05/27 09:31:15;;;;;;;0.73;0.73;;;;;;;18.62;63.97;99808.81;4987915;28;20026;-55
2022/05/27 09:33:41;;;;;;;1.98;0.60;;;;;;;17.98;66.20;99807.81;4985609;28;20113;-55
2022/05/27 09:36:25;;;;;;;1.13;0.50;;;;;;;17.77;67.21;99818.69;4975598;28;20553;-54
2022/05/27 09:38:55;;;;;;;1.58;1.00;;;;;;;17.50;68.46;99818.19;4984507;28;20113;-56
2022/05/27 09:41:33;;;;;;;6.55;1.67;;;;;;;16.50;71.46;99824.88;4986989;28;20046;-52
2022/05/27 09:44:24;;;;;;;4.63;1.77;;;;;;;16.05;76.00;99839.88;4954190;28;20030;-54
2022/05/27 09:46:50;;;;;;;4.57;1.80;;;;;;;15.63;76.82;99835.31;4971345;28;20046;-55
2022/05/27 09:49:16;;;;;;;6.10;2.10;;;;;;;15.51;80.64;99849.00;4954544;28;20387;-55
2022/05/27 09:51:41;;;;;;;5.85;2.00;;;;;;;14.98;83.33;99843.47;4963317;28;20030;-55
2022/05/27 09:54:11;;;;;;;3.50;2.30;;;;;;;14.93;83.88;99845.31;4986810;28;20030;-56
2022/05/27 09:56:54;;;;;;;4.88;2.30;;;;;;;14.61;87.38;99846.06;4986710;28;20026;-54
2022/05/27 09:59:25;;;;;;;3.65;2.25;;;;;;;14.92;85.86;99851.75;4986625;28;20034;-55
2022/05/27 10:01:51;;;;;;;4.40;2.50;;;;;;;14.75;87.06;99852.72;4986944;28;20026;-57
2022/05/27 10:04:17;;;;;;;6.82;2.80;;;;;;;14.63;86.03;99843.94;4987627;28;20076;-55
2022/05/27 10:06:43;;;;;;;5.25;2.72;;;;;;;14.34;87.72;99849.53;4985877;28;20027;-55
2022/05/27 10:09:29;;;;;;;5.95;2.85;;;;;;;14.52;85.27;99847.56;4981745;28;20440;-56
2022/05/27 10:11:58;;;;;;;6.35;2.55;;;;;;;14.80;84.78;99854.63;4996426;28;20673;-56
2022/05/27 10:14:29;;;;;;;5.63;2.70;;;;;;;14.63;85.30;99860.94;4979425;28;20019;-55
2022/05/27 10:17:11;;;;;;;6.35;3.20;;;;;;;14.79;84.00;99858.41;4974595;28;20042;-54
2022/05/27 10:19:37;;;;;;;5.53;2.95;;;;;;;14.61;87.11;99857.69;4983834;28;20089;-55
2022/05/27 10:22:05;;;;;;;5.25;2.97;;;;;;;14.55;87.50;99852.47;4977900;28;20057;-55
2022/05/27 10:24:32;;;;;;;4.63;3.03;;;;;;;14.79;87.14;99864.59;4981259;28;20080;-59
2022/05/27 10:27:02;;;;;;;5.72;3.05;;;;;;;14.88;87.44;99857.69;4984265;28;20543;-54
2022/05/27 10:29:29;;;;;;;7.28;3.28;;;;;;;14.98;84.77;99859.66;4982161;28;20035;-55
2022/05/27 10:31:55;;;;;;;6.38;3.20;;;;;;;15.50;85.17;99863.56;4980529;28;20527;-54
2022/05/27 10:34:43;;;;;;;8.50;3.65;;;;;;;16.00;80.90;99851.50;4980275;28;20559;-56
2022/05/27 10:37:36;;;;;;;8.45;3.63;;;;;;;16.89;77.06;99844.22;4981759;28;20481;-55
2022/05/27 10:40:24;;;;;;;6.45;3.80;;;;;;;17.28;74.87;99846.41;4977573;28;20030;-55
2022/05/27 10:43:19;;;;;;;6.25;3.75;;;;;;;16.91;75.07;99846.66;4982623;28;20034;-54
2022/05/27 10:45:47;;;;;;;17.25;11.48;;;;;;;16.84;73.11;99843.41;4955281;28;20446;-55
2022/05/27 10:48:40;;;;;;;8.77;4.22;;;;;;;17.76;71.16;99849.59;4975090;28;20039;-55
2022/05/27 10:51:28;;;;;;;5.25;3.17;;;;;;;17.13;71.24;99841.00;4981198;28;20085;-55
2022/05/27 10:54:19;;;;;;;5.13;3.10;;;;;;;18.43;68.49;99835.81;4978912;28;20022;-56
2022/05/27 11:02:44;;;;;;;4.78;2.40;;;;;;;19.94;62.77;99816.91;4983497;28;20440;-55
2022/05/27 11:05:46;;;;;;;5.68;2.30;;;;;;;19.95;62.31;99841.13;4984085;28;20500;-54
2022/05/27 11:08:53;;;;;;;5.78;2.70;;;;;;;19.48;62.37;99829.06;4962026;28;20086;-54
2022/05/27 11:11:27;;;;;;;5.78;2.63;;;;;;;19.10;64.20;99828.88;4963776;28;20031;-54
2022/05/27 11:17:12;;;;;;;6.40;2.83;;;;;;;18.63;65.44;99832.16;4978380;28;20057;-54
2022/05/27 11:19:41;;;;;;;3.92;2.38;;;;;;;18.46;63.14;99829.81;4979403;28;20029;-55
2022/05/27 11:22:26;;;;;;;6.75;2.63;;;;;;;19.03;60.74;99825.66;4982952;28;20085;-54
2022/05/27 11:25:10;;;;;;;6.43;3.03;;;;;;;18.84;60.33;99822.81;4966636;28;20473;-54
2022/05/27 11:27:57;;;;;;;6.18;2.85;;;;;;;19.13;59.65;99812.00;4999999;28;20401;-54
2022/05/27 11:31:01;;;;;;;4.68;2.88;;;;;;;19.43;58.67;99815.53;4984819;28;20135;-54
2022/05/27 11:33:35;;;;;;;4.97;2.75;;;;;;;20.24;55.57;99811.09;4959118;28;20068;-53
2022/05/27 11:36:13;;;;;;;4.90;3.05;;;;;;;20.08;55.19;99806.16;4943581;28;20122;-55
2022/05/27 11:38:47;;;;;;;7.47;3.28;;;;;;;20.15;54.47;99807.41;4971827;28;20599;-55
2022/05/27 11:41:31;;;;;;;9.75;3.13;;;;;;;20.10;55.72;99807.47;4981530;28;20381;-54
2022/05/27 11:44:03;;;;;;;5.70;3.03;;;;;;;20.99;52.72;99792.31;4982345;28;20030;-56
2022/05/27 11:46:37;;;;;;;6.25;2.90;;;;;;;20.67;51.81;99793.94;4963044;28;20026;-55
2022/05/27 11:49:21;;;;;;;5.25;2.90;;;;;;;20.43;50.63;99785.81;4999785;28;20096;-54
2022/05/27 11:52:18;;;;;;;5.90;2.83;;;;;;;20.85;48.98;99793.09;4982066;28;20030;-55
2022/05/27 11:55:02;;;;;;;5.22;3.10;;;;;;;21.06;48.37;99795.47;4981446;28;20511;-55
2022/05/27 11:57:47;;;;;;;5.78;2.72;;;;;;;21.51;48.64;99784.88;4976257;28;20052;-54
2022/05/27 12:00:16;;;;;;;4.43;2.70;;;;;;;22.05;47.86;99787.94;4982668;28;20109;-55
2022/05/27 12:02:48;;;;;;;10.60;2.70;;;;;;;21.98;45.44;99774.69;4960480;28;20541;-54
2022/05/27 12:05:19;;;;;;;5.57;2.60;;;;;;;21.84;46.02;99784.81;4981587;28;20118;-55
2022/05/27 12:08:22;;;;;;;5.00;2.60;;;;;;;21.78;45.97;99766.94;4980555;28;20022;-55
2022/05/27 12:10:53;;;;;;;6.95;2.80;;;;;;;21.82;43.31;99765.22;5001978;28;20035;-54
2022/05/27 12:13:32;;;;;;;6.10;2.67;;;;;;;22.41;42.68;99766.13;4983501;28;20033;-54
2022/05/27 12:16:02;;;;;;;7.30;2.60;;;;;;;22.15;43.76;99766.69;4995249;28;20106;-54
2022/05/27 12:18:35;;;;;;;7.90;2.67;;;;;;;22.24;43.39;99757.78;4962436;28;20051;-53
2022/05/27 12:21:01;;;;;;;6.20;2.75;;;;;;;21.54;44.87;99754.28;4982575;28;20531;-53
2022/05/27 12:23:27;;;;;;;7.28;2.72;;;;;;;21.64;43.01;99759.56;4981891;28;20026;-53
2022/05/27 12:25:54;;;;;;;9.35;2.95;;;;;;;22.32;43.35;99760.59;4983890;28;20018;-52